createdAt,value
2018-07-25T00:00:12.767Z,88.89
2018-07-25T00:01:12.769Z,88.84
2018-07-25T00:02:12.837Z,88.79
2018-07-25T00:03:12.835Z,88.76
2018-07-25T00:04:12.864Z,88.68
2018-07-25T00:05:12.839Z,88.44
2018-07-25T00:06:12.766Z,88.50
2018-07-25T00:07:12.713Z,88.41
2018-07-25T00:08:12.750Z,88.65
2018-07-25T00:09:12.812Z,88.76
2018-07-25T00:10:12.815Z,89.03
2018-07-25T00:11:12.775Z,89.06
2018-07-25T00:12:12.849Z,89.08
2018-07-25T00:13:12.814Z,89.03
2018-07-25T00:14:12.789Z,88.87
2018-07-25T00:15:12.818Z,89.08
2018-07-25T00:16:12.771Z,89.24
2018-07-25T00:17:12.816Z,89.32
2018-07-25T00:18:12.757Z,89.27
2018-07-25T00:19:12.825Z,89.27
2018-07-25T00:20:12.848Z,89.43
2018-07-25T00:21:12.860Z,89.45
2018-07-25T00:22:12.844Z,89.32
2018-07-25T00:23:12.798Z,89.29
2018-07-25T00:24:12.856Z,89.32
2018-07-25T00:25:12.746Z,89.43
2018-07-25T00:26:12.723Z,89.86
2018-07-25T00:27:12.826Z,89.91
2018-07-25T00:28:12.853Z,89.94
2018-07-25T00:29:12.803Z,90.18
2018-07-25T00:30:12.727Z,90.36
2018-07-25T00:31:12.795Z,90.42
2018-07-25T00:32:12.807Z,90.71
2018-07-25T00:33:12.753Z,91.09
2018-07-25T00:34:12.753Z,91.14
2018-07-25T00:35:12.865Z,91.03
2018-07-25T00:36:12.761Z,90.74
2018-07-25T00:37:12.829Z,90.93
2018-07-25T00:38:12.792Z,90.98
2018-07-25T00:39:12.735Z,91.33
2018-07-25T00:40:12.833Z,91.47
2018-07-25T00:41:12.759Z,91.63
2018-07-25T00:42:12.843Z,91.68
2018-07-25T00:43:12.861Z,91.79
2018-07-25T00:44:12.805Z,91.76
2018-07-25T00:45:12.872Z,91.90
2018-07-25T00:46:12.761Z,91.95
2018-07-25T00:47:12.880Z,92.05
2018-07-25T00:48:12.840Z,92.16
2018-07-25T00:49:12.808Z,92.19
2018-07-25T00:50:12.840Z,92.19
2018-07-25T00:51:12.740Z,92.11
2018-07-25T00:52:12.878Z,92.16
2018-07-25T00:53:12.874Z,92.05
2018-07-25T00:54:12.852Z,92.22
2018-07-25T00:55:12.818Z,92.59
2018-07-25T00:56:12.883Z,92.91
2018-07-25T00:57:12.878Z,93.05
2018-07-25T00:58:12.873Z,93.13
2018-07-25T00:59:12.880Z,93.18
2018-07-25T01:00:12.847Z,93.29
2018-07-25T01:01:12.879Z,93.35
2018-07-25T01:02:12.823Z,93.48
2018-07-25T01:03:12.815Z,93.64
2018-07-25T01:04:12.800Z,93.78
2018-07-25T01:05:12.784Z,93.89
2018-07-25T01:06:12.787Z,93.89
2018-07-25T01:07:12.786Z,93.85
2018-07-25T01:08:12.784Z,93.83
2018-07-25T01:09:12.789Z,93.83
2018-07-25T01:10:12.853Z,93.85
2018-07-25T01:11:12.908Z,93.85
2018-07-25T01:12:12.863Z,93.78
2018-07-25T01:13:12.859Z,93.64
2018-07-25T01:14:12.744Z,93.56
2018-07-25T01:15:12.816Z,93.56
2018-07-25T01:16:12.862Z,93.72
2018-07-25T01:17:12.863Z,93.72
2018-07-25T01:18:12.790Z,93.81
2018-07-25T01:19:12.859Z,94.02
2018-07-25T01:20:12.799Z,94.23
2018-07-25T01:21:12.863Z,94.26
2018-07-25T01:22:12.801Z,94.37
2018-07-25T01:23:12.862Z,94.48
2018-07-25T01:24:12.867Z,94.59
2018-07-25T01:25:12.791Z,94.83
2018-07-25T01:26:12.835Z,95.01
2018-07-25T01:27:12.770Z,95.23
2018-07-25T01:28:12.832Z,95.47
2018-07-25T01:29:12.839Z,95.75
2018-07-25T01:30:12.902Z,95.91
2018-07-25T01:31:12.843Z,96.02
2018-07-25T01:32:12.836Z,96.04
2018-07-25T01:33:12.913Z,95.98
2018-07-25T01:34:12.790Z,95.96
2018-07-25T01:35:12.812Z,95.91
2018-07-25T01:36:12.965Z,95.83
2018-07-25T01:37:12.899Z,95.75
2018-07-25T01:38:12.777Z,95.56
2018-07-25T01:39:12.813Z,96.28
2018-07-25T01:40:12.778Z,96.91
2018-07-25T01:41:12.879Z,97.18
2018-07-25T01:42:12.904Z,97.26
2018-07-25T01:43:12.816Z,97.42
2018-07-25T01:44:12.880Z,97.69
2018-07-25T01:45:12.813Z,97.77
2018-07-25T01:46:12.838Z,97.74
2018-07-25T01:47:12.812Z,97.83
2018-07-25T01:48:12.813Z,98.02
2018-07-25T01:49:12.887Z,98.10
2018-07-25T01:50:12.883Z,98.55
2018-07-25T01:51:12.820Z,98.59
2018-07-25T01:52:12.818Z,98.66
2018-07-25T01:53:12.901Z,98.66
2018-07-25T01:54:12.889Z,98.75
2018-07-25T01:55:12.837Z,98.75
2018-07-25T01:56:12.911Z,98.77
2018-07-25T01:57:12.783Z,98.72
2018-07-25T01:58:12.851Z,98.72
2018-07-25T01:59:12.895Z,98.72
2018-07-25T02:00:12.864Z,98.77
2018-07-25T02:01:12.923Z,98.85
2018-07-25T02:02:12.923Z,98.88
2018-07-25T02:03:12.894Z,99.07
2018-07-25T02:04:12.890Z,99.18
2018-07-25T02:05:12.812Z,99.21
2018-07-25T02:06:12.924Z,99.10
2018-07-25T02:07:12.861Z,98.96
2018-07-25T02:08:12.915Z,98.85
2018-07-25T02:09:12.889Z,98.80
2018-07-25T02:10:12.872Z,98.85
2018-07-25T02:11:12.928Z,99.02
2018-07-25T02:12:12.941Z,99.21
2018-07-25T02:13:12.937Z,99.32
2018-07-25T02:14:12.805Z,99.51
2018-07-25T02:15:12.862Z,99.62
2018-07-25T02:16:12.932Z,99.64
2018-07-25T02:17:12.935Z,99.64
2018-07-25T02:18:12.805Z,99.81
2018-07-25T02:19:12.839Z,99.86
2018-07-25T02:20:12.927Z,99.89
2018-07-25T02:21:12.941Z,99.99
2018-07-25T02:22:12.832Z,99.99
2018-07-25T02:23:12.937Z,99.99
2018-07-25T02:24:12.825Z,99.99
2018-07-25T02:25:12.896Z,99.99
2018-07-25T02:26:12.825Z,99.99
2018-07-25T02:27:12.781Z,99.99
2018-07-25T02:28:12.782Z,99.99
2018-07-25T02:29:12.817Z,99.99
2018-07-25T02:30:12.933Z,99.99
2018-07-25T02:31:12.788Z,99.99
2018-07-25T02:32:12.908Z,99.99
2018-07-25T02:33:12.815Z,99.99
2018-07-25T02:34:12.783Z,99.99
2018-07-25T02:35:12.910Z,99.99
2018-07-25T02:36:12.913Z,99.99
2018-07-25T02:37:12.914Z,99.99
2018-07-25T02:38:12.840Z,99.99
2018-07-25T02:39:12.915Z,99.99
2018-07-25T02:40:12.861Z,99.99
2018-07-25T02:41:12.875Z,99.99
2018-07-25T02:42:12.840Z,99.99
2018-07-25T02:43:12.916Z,99.99
2018-07-25T02:44:12.848Z,99.99
2018-07-25T02:45:12.790Z,99.99
2018-07-25T02:46:12.788Z,99.99
2018-07-25T02:47:12.875Z,99.99
2018-07-25T02:48:12.903Z,99.99
2018-07-25T02:49:12.796Z,99.99
2018-07-25T02:50:12.789Z,99.99
2018-07-25T02:51:12.876Z,99.99
2018-07-25T02:52:12.914Z,99.99
2018-07-25T02:53:12.887Z,99.99
2018-07-25T02:54:12.903Z,99.99
2018-07-25T02:55:12.965Z,99.99
2018-07-25T02:56:12.932Z,99.99
2018-07-25T02:57:12.865Z,99.99
2018-07-25T02:58:12.932Z,99.99
2018-07-25T02:59:12.862Z,99.99
2018-07-25T03:00:12.867Z,99.99
2018-07-25T03:01:12.868Z,99.99
2018-07-25T03:02:12.934Z,99.99
2018-07-25T03:03:12.936Z,99.99
2018-07-25T03:04:12.872Z,99.99
2018-07-25T03:05:12.964Z,99.99
2018-07-25T03:06:12.928Z,99.99
2018-07-25T03:07:12.931Z,99.99
2018-07-25T03:08:12.918Z,99.99
2018-07-25T03:09:12.936Z,99.99
2018-07-25T03:10:12.940Z,99.99
2018-07-25T03:11:12.908Z,99.99
2018-07-25T03:12:12.966Z,99.99
2018-07-25T03:13:12.844Z,99.99
2018-07-25T03:14:12.837Z,99.99
2018-07-25T03:15:12.970Z,99.99
2018-07-25T03:16:12.921Z,99.99
2018-07-25T03:17:12.929Z,99.99
2018-07-25T03:18:12.850Z,99.99
2018-07-25T03:19:12.950Z,99.99
2018-07-25T03:20:12.924Z,99.99
2018-07-25T03:21:12.925Z,99.99
2018-07-25T03:22:12.947Z,99.99
2018-07-25T03:23:12.985Z,99.99
2018-07-25T03:24:12.889Z,99.99
2018-07-25T03:25:12.878Z,99.99
2018-07-25T03:26:12.880Z,99.99
2018-07-25T03:27:12.885Z,99.99
2018-07-25T03:28:12.880Z,99.99
2018-07-25T03:29:12.950Z,99.99
2018-07-25T03:30:12.886Z,99.99
2018-07-25T03:31:13.027Z,99.99
2018-07-25T03:32:12.951Z,99.99
2018-07-25T03:33:12.955Z,99.99
2018-07-25T03:34:12.922Z,99.99
2018-07-25T03:35:12.955Z,99.99
2018-07-25T03:36:12.957Z,99.99
2018-07-25T03:37:12.852Z,99.99
2018-07-25T03:38:12.964Z,99.99
2018-07-25T03:39:12.889Z,99.99
2018-07-25T03:40:12.957Z,99.99
2018-07-25T03:41:12.890Z,99.99
2018-07-25T03:42:12.966Z,99.99
2018-07-25T03:43:12.890Z,99.99
2018-07-25T03:44:12.914Z,99.99
2018-07-25T03:45:12.877Z,99.99
2018-07-25T03:46:12.916Z,99.99
2018-07-25T03:47:12.964Z,99.99
2018-07-25T03:48:12.969Z,99.99
2018-07-25T03:49:12.981Z,99.99
2018-07-25T03:50:12.870Z,99.99
2018-07-25T03:51:12.921Z,99.99
2018-07-25T03:52:12.883Z,99.99
2018-07-25T03:53:12.989Z,99.99
2018-07-25T03:54:12.868Z,99.99
2018-07-25T03:55:12.985Z,99.99
2018-07-25T03:56:12.983Z,99.99
2018-07-25T03:57:12.942Z,99.99
2018-07-25T03:58:12.950Z,99.99
2018-07-25T03:59:12.873Z,99.99
2018-07-25T04:00:12.996Z,99.99
2018-07-25T04:01:13.005Z,99.99
2018-07-25T04:02:12.935Z,99.99
2018-07-25T04:03:12.934Z,99.99
2018-07-25T04:04:12.870Z,99.99
2018-07-25T04:05:13.009Z,99.99
2018-07-25T04:06:12.949Z,99.99
2018-07-25T04:07:12.988Z,99.99
2018-07-25T04:08:12.992Z,99.99
2018-07-25T04:09:12.945Z,99.99
2018-07-25T04:10:12.898Z,99.99
2018-07-25T04:11:12.937Z,99.99
2018-07-25T04:12:12.975Z,99.99
2018-07-25T04:13:12.992Z,99.99
2018-07-25T04:14:13.007Z,99.99
2018-07-25T04:15:13.008Z,99.99
2018-07-25T04:16:12.938Z,99.99
2018-07-25T04:17:12.945Z,99.99
2018-07-25T04:18:13.012Z,99.99
2018-07-25T04:19:12.923Z,99.99
2018-07-25T04:20:12.943Z,99.99
2018-07-25T04:21:12.942Z,99.99
2018-07-25T04:22:12.882Z,99.99
2018-07-25T04:23:12.943Z,99.99
2018-07-25T04:24:13.020Z,99.99
2018-07-25T04:25:12.980Z,99.99
2018-07-25T04:26:12.866Z,99.99
2018-07-25T04:27:12.973Z,99.99
2018-07-25T04:28:12.941Z,99.99
2018-07-25T04:29:12.945Z,99.99
2018-07-25T04:30:12.951Z,99.99
2018-07-25T04:31:12.986Z,99.99
2018-07-25T04:32:12.942Z,99.99
2018-07-25T04:33:12.898Z,99.99
2018-07-25T04:34:12.985Z,99.99
2018-07-25T04:35:12.911Z,99.99
2018-07-25T04:36:12.931Z,99.99
2018-07-25T04:37:12.995Z,99.99
2018-07-25T04:38:13.018Z,99.99
2018-07-25T04:39:13.009Z,99.99
2018-07-25T04:40:13.006Z,99.99
2018-07-25T04:41:12.926Z,99.99
2018-07-25T04:42:12.996Z,99.99
2018-07-25T04:43:13.009Z,99.99
2018-07-25T04:44:12.961Z,99.99
2018-07-25T04:45:12.934Z,99.99
2018-07-25T04:46:13.089Z,99.99
2018-07-25T04:47:12.939Z,99.99
2018-07-25T04:48:13.004Z,99.99
2018-07-25T04:49:12.932Z,99.99
2018-07-25T04:50:12.904Z,99.99
2018-07-25T04:51:12.934Z,99.99
2018-07-25T04:52:12.936Z,99.99
2018-07-25T04:53:12.935Z,99.86
2018-07-25T04:54:13.008Z,99.59
2018-07-25T04:55:12.967Z,99.32
2018-07-25T04:56:13.014Z,99.04
2018-07-25T04:57:13.008Z,98.77
2018-07-25T04:58:12.944Z,98.53
2018-07-25T04:59:12.998Z,98.26
2018-07-25T05:00:12.950Z,98.12
2018-07-25T05:01:13.029Z,97.83
2018-07-25T05:02:12.944Z,97.72
2018-07-25T05:03:13.018Z,97.61
2018-07-25T05:04:13.016Z,97.45
2018-07-25T05:05:12.943Z,97.21
2018-07-25T05:06:13.015Z,96.80
2018-07-25T05:07:13.054Z,96.23
2018-07-25T05:08:12.958Z,95.96
2018-07-25T05:09:13.020Z,95.42
2018-07-25T05:10:12.952Z,94.83
2018-07-25T05:11:13.055Z,94.64
2018-07-25T05:12:12.964Z,94.42
2018-07-25T05:13:12.956Z,94.34
2018-07-25T05:14:13.022Z,94.34
2018-07-25T05:15:13.005Z,94.18
2018-07-25T05:16:12.924Z,94.07
2018-07-25T05:17:12.920Z,93.89
2018-07-25T05:18:13.018Z,93.64
2018-07-25T05:19:13.013Z,93.26
2018-07-25T05:20:12.904Z,92.73
2018-07-25T05:21:12.969Z,92.43
2018-07-25T05:22:12.908Z,91.79
2018-07-25T05:23:13.032Z,91.60
2018-07-25T05:24:13.030Z,91.60
2018-07-25T05:25:12.959Z,91.22
2018-07-25T05:26:12.974Z,90.69
2018-07-25T05:27:13.031Z,89.94
2018-07-25T05:28:12.968Z,89.62
2018-07-25T05:29:12.977Z,89.40
2018-07-25T05:30:13.033Z,89.00
2018-07-25T05:31:12.965Z,88.50
2018-07-25T05:32:12.970Z,87.93
2018-07-25T05:33:13.034Z,87.59
2018-07-25T05:34:13.033Z,86.81
2018-07-25T05:35:12.966Z,86.71
2018-07-25T05:36:13.037Z,86.63
2018-07-25T05:37:13.035Z,86.65
2018-07-25T05:38:13.081Z,86.63
2018-07-25T05:39:12.970Z,86.76
2018-07-25T05:40:12.931Z,86.01
2018-07-25T05:41:12.994Z,85.72
2018-07-25T05:42:12.972Z,84.55
2018-07-25T05:43:13.046Z,83.83
2018-07-25T05:44:12.976Z,83.89
2018-07-25T05:45:13.000Z,83.51
2018-07-25T05:46:13.069Z,82.82
2018-07-25T05:47:13.137Z,83.20
2018-07-25T05:48:13.082Z,82.40
2018-07-25T05:49:13.016Z,82.43
2018-07-25T05:50:13.078Z,82.03
2018-07-25T05:51:13.070Z,81.90
2018-07-25T05:52:13.059Z,81.42
2018-07-25T05:53:12.948Z,81.18
2018-07-25T05:54:12.999Z,80.73
2018-07-25T05:55:13.048Z,80.31
2018-07-25T05:56:12.978Z,78.52
2018-07-25T05:57:12.953Z,78.49
2018-07-25T05:58:12.954Z,78.57
2018-07-25T05:59:13.032Z,75.78
2018-07-25T06:00:12.959Z,75.47
2018-07-25T06:01:12.955Z,75.21
2018-07-25T06:02:12.921Z,74.47
2018-07-25T06:03:13.107Z,73.55
2018-07-25T06:04:13.058Z,72.69
2018-07-25T06:05:12.994Z,72.04
2018-07-25T06:06:13.167Z,73.35
2018-07-25T06:07:12.989Z,71.99
2018-07-25T06:08:13.065Z,71.44
2018-07-25T06:09:12.992Z,69.98
2018-07-25T06:10:12.990Z,69.62
2018-07-25T06:11:13.058Z,70.06
2018-07-25T06:12:13.058Z,70.76
2018-07-25T06:13:13.092Z,69.46
2018-07-25T06:14:13.014Z,69.88
2018-07-25T06:15:12.999Z,69.70
2018-07-25T06:16:13.078Z,68.81
2018-07-25T06:17:13.032Z,67.93
2018-07-25T06:18:12.970Z,68.84
2018-07-25T06:19:13.087Z,68.14
2018-07-25T06:20:13.038Z,68.71
2018-07-25T06:21:13.120Z,70.66
2018-07-25T06:22:13.097Z,70.87
2018-07-25T06:23:13.047Z,70.04
2018-07-25T06:24:12.987Z,70.17
2018-07-25T06:25:13.040Z,70.97
2018-07-25T06:26:13.041Z,70.09
2018-07-25T06:27:12.997Z,68.32
2018-07-25T06:28:13.057Z,68.40
2018-07-25T06:29:12.978Z,68.91
2018-07-25T06:30:13.034Z,68.68
2018-07-25T06:31:13.037Z,68.45
2018-07-25T06:32:13.048Z,67.83
2018-07-25T06:33:13.036Z,67.60
2018-07-25T06:34:13.117Z,67.96
2018-07-25T06:35:13.056Z,68.76
2018-07-25T06:36:12.998Z,67.91
2018-07-25T06:37:13.035Z,66.48
2018-07-25T06:38:13.004Z,66.79
2018-07-25T06:39:12.939Z,66.14
2018-07-25T06:40:13.007Z,65.58
2018-07-25T06:41:13.067Z,65.89
2018-07-25T06:42:13.032Z,65.26
2018-07-25T06:43:13.018Z,66.01
2018-07-25T06:44:12.971Z,64.95
2018-07-25T06:45:13.079Z,65.22
2018-07-25T06:46:13.082Z,65.78
2018-07-25T06:47:13.018Z,64.88
2018-07-25T06:48:13.018Z,63.41
2018-07-25T06:49:13.120Z,62.99
2018-07-25T06:50:13.021Z,63.28
2018-07-25T06:51:13.108Z,62.25
2018-07-25T06:52:13.088Z,62.35
2018-07-25T06:53:13.143Z,62.10
2018-07-25T06:54:13.087Z,61.56
2018-07-25T06:55:13.110Z,60.63
2018-07-25T06:56:13.127Z,61.04
2018-07-25T06:57:13.117Z,60.81
2018-07-25T06:58:13.091Z,60.35
2018-07-25T06:59:13.028Z,59.78
2018-07-25T07:00:13.094Z,59.53
2018-07-25T07:01:13.093Z,58.33
2018-07-25T07:02:13.092Z,58.74
2018-07-25T07:03:13.093Z,58.07
2018-07-25T07:04:13.096Z,59.40
2018-07-25T07:05:13.031Z,57.13
2018-07-25T07:06:13.096Z,57.28
2018-07-25T07:07:13.040Z,57.41
2018-07-25T07:08:13.095Z,58.87
2018-07-25T07:09:13.066Z,57.08
2018-07-25T07:10:13.102Z,56.95
2018-07-25T07:11:13.038Z,56.03
2018-07-25T07:12:13.171Z,54.94
2018-07-25T07:13:13.046Z,54.37
2018-07-25T07:14:13.158Z,53.77
2018-07-25T07:15:13.114Z,53.59
2018-07-25T07:16:13.041Z,53.47
2018-07-25T07:17:13.095Z,53.72
2018-07-25T07:18:13.104Z,52.45
2018-07-25T07:19:13.129Z,53.16
2018-07-25T07:20:13.045Z,53.31
2018-07-25T07:21:13.114Z,53.09
2018-07-25T07:22:13.038Z,53.51
2018-07-25T07:23:12.983Z,52.57
2018-07-25T07:24:13.045Z,54.02
2018-07-25T07:25:12.985Z,52.53
2018-07-25T07:26:13.044Z,52.85
2018-07-25T07:27:13.043Z,52.25
2018-07-25T07:28:13.000Z,52.27
2018-07-25T07:29:13.019Z,51.29
2018-07-25T07:30:13.060Z,50.40
2018-07-25T07:31:13.020Z,50.96
2018-07-25T07:32:13.065Z,51.24
2018-07-25T07:33:13.023Z,50.02
2018-07-25T07:34:13.066Z,49.75
2018-07-25T07:35:13.178Z,50.15
2018-07-25T07:36:13.132Z,50.80
2018-07-25T07:37:13.067Z,49.60
2018-07-25T07:38:13.056Z,49.82
2018-07-25T07:39:13.114Z,49.60
2018-07-25T07:40:13.142Z,49.62
2018-07-25T07:41:13.195Z,49.17
2018-07-25T07:42:13.055Z,48.39
2018-07-25T07:43:13.153Z,47.48
2018-07-25T07:44:13.107Z,49.32
2018-07-25T07:45:13.033Z,48.03
2018-07-25T07:46:12.997Z,48.64
2018-07-25T07:47:12.994Z,48.36
2018-07-25T07:48:12.997Z,48.06
2018-07-25T07:49:13.112Z,49.55
2018-07-25T07:50:13.020Z,47.51
2018-07-25T07:51:13.054Z,47.63
2018-07-25T07:52:13.079Z,48.74
2018-07-25T07:53:13.059Z,47.86
2018-07-25T07:54:12.989Z,48.36
2018-07-25T07:55:13.018Z,49.64
2018-07-25T07:56:13.163Z,46.12
2018-07-25T07:57:13.153Z,46.81
2018-07-25T07:58:13.132Z,46.45
2018-07-25T07:59:13.038Z,46.45
2018-07-25T08:00:13.072Z,45.90
2018-07-25T08:01:13.103Z,46.48
2018-07-25T08:02:13.120Z,45.82
2018-07-25T08:03:13.118Z,44.55
2018-07-25T08:04:13.105Z,44.39
2018-07-25T08:05:13.113Z,44.95
2018-07-25T08:06:13.136Z,46.32
2018-07-25T08:07:13.092Z,43.55
2018-07-25T08:08:13.179Z,46.68
2018-07-25T08:09:13.112Z,43.82
2018-07-25T08:10:13.041Z,43.72
2018-07-25T08:11:13.067Z,44.30
2018-07-25T08:12:13.166Z,45.00
2018-07-25T08:13:13.122Z,44.77
2018-07-25T08:14:13.173Z,46.05
2018-07-25T08:15:13.104Z,44.60
2018-07-25T08:16:13.098Z,43.08
2018-07-25T08:17:13.161Z,43.33
2018-07-25T08:18:13.187Z,44.37
2018-07-25T08:19:13.152Z,42.45
2018-07-25T08:20:13.104Z,42.37
2018-07-25T08:21:13.282Z,42.23
2018-07-25T08:22:13.130Z,41.95
2018-07-25T08:23:13.169Z,44.15
2018-07-25T08:24:13.151Z,43.47
2018-07-25T08:25:13.173Z,43.80
2018-07-25T08:26:13.062Z,47.28
2018-07-25T08:27:13.139Z,42.58
2018-07-25T08:28:13.107Z,41.48
2018-07-25T08:29:13.062Z,43.82
2018-07-25T08:30:13.021Z,42.10
2018-07-25T08:31:13.147Z,42.25
2018-07-25T08:32:13.103Z,42.42
2018-07-25T08:33:13.033Z,41.21
2018-07-25T08:34:13.065Z,41.21
2018-07-25T08:35:13.145Z,41.43
2018-07-25T08:36:13.111Z,42.97
2018-07-25T08:37:13.091Z,42.10
2018-07-25T08:38:13.091Z,42.37
2018-07-25T08:39:13.032Z,40.71
2018-07-25T08:40:13.097Z,42.60
2018-07-25T08:41:13.048Z,40.06
2018-07-25T08:42:13.094Z,41.26
2018-07-25T08:43:13.031Z,43.27
2018-07-25T08:44:13.031Z,41.15
2018-07-25T08:45:13.162Z,40.61
2018-07-25T08:46:13.102Z,38.47
2018-07-25T08:47:13.133Z,38.70
2018-07-25T08:48:13.168Z,36.13
2018-07-25T08:49:13.104Z,35.02
2018-07-25T08:50:13.170Z,36.50
2018-07-25T08:51:13.117Z,34.45
2018-07-25T08:52:13.171Z,34.92
2018-07-25T08:53:13.117Z,36.11
2018-07-25T08:54:13.172Z,34.70
2018-07-25T08:55:13.106Z,34.06
2018-07-25T08:56:13.134Z,35.19
2018-07-25T08:57:13.138Z,36.23
2018-07-25T08:58:13.134Z,34.87
2018-07-25T08:59:13.132Z,34.67
2018-07-25T09:00:13.199Z,35.93
2018-07-25T09:01:13.134Z,36.28
2018-07-25T09:02:13.178Z,37.31
2018-07-25T09:03:13.114Z,37.78
2018-07-25T09:04:13.155Z,35.36
2018-07-25T09:05:13.112Z,34.62
2018-07-25T09:06:13.257Z,35.39
2018-07-25T09:07:13.181Z,33.10
2018-07-25T09:08:13.211Z,34.77
2018-07-25T09:09:13.183Z,33.62
2018-07-25T09:10:13.085Z,33.84
2018-07-25T09:11:13.200Z,33.25
2018-07-25T09:12:13.154Z,33.32
2018-07-25T09:13:13.225Z,32.07
2018-07-25T09:14:13.139Z,31.44
2018-07-25T09:15:13.154Z,32.41
2018-07-25T09:16:13.202Z,31.68
2018-07-25T09:17:13.174Z,35.56
2018-07-25T09:18:13.210Z,34.06
2018-07-25T09:19:13.119Z,33.35
2018-07-25T09:20:13.188Z,33.69
2018-07-25T09:21:13.123Z,35.81
2018-07-25T09:22:13.188Z,34.43
2018-07-25T09:23:13.125Z,38.00
2018-07-25T09:24:13.192Z,33.35
2018-07-25T09:25:13.189Z,33.66
2018-07-25T09:26:13.196Z,35.54
2018-07-25T09:27:13.121Z,36.84
2018-07-25T09:28:13.191Z,34.62
2018-07-25T09:29:13.129Z,38.75
2018-07-25T09:30:13.129Z,33.69
2018-07-25T09:31:13.193Z,32.10
2018-07-25T09:32:13.131Z,31.88
2018-07-25T09:33:13.196Z,32.74
2018-07-25T09:34:13.361Z,31.80
2018-07-25T09:35:13.199Z,32.76
2018-07-25T09:36:13.149Z,32.86
2018-07-25T09:37:13.104Z,34.95
2018-07-25T09:38:13.146Z,33.20
2018-07-25T09:39:13.099Z,32.81
2018-07-25T09:40:13.059Z,35.36
2018-07-25T09:41:13.153Z,32.02
2018-07-25T09:42:13.147Z,31.90
2018-07-25T09:43:13.108Z,33.99
2018-07-25T09:44:13.104Z,32.00
2018-07-25T09:45:13.067Z,31.53
2018-07-25T09:46:13.166Z,31.78
2018-07-25T09:47:13.231Z,32.29
2018-07-25T09:48:13.240Z,34.62
2018-07-25T09:49:13.147Z,32.58
2018-07-25T09:50:13.117Z,35.04
2018-07-25T09:51:13.175Z,33.30
2018-07-25T09:52:13.238Z,32.24
2018-07-25T09:53:13.195Z,32.51
2018-07-25T09:54:13.147Z,32.49
2018-07-25T09:55:13.179Z,33.37
2018-07-25T09:56:13.264Z,34.16
2018-07-25T09:57:13.250Z,35.34
2018-07-25T09:58:13.247Z,36.64
2018-07-25T09:59:13.206Z,35.34
2018-07-25T10:00:13.114Z,32.56
2018-07-25T10:01:13.216Z,30.85
2018-07-25T10:02:13.185Z,31.78
2018-07-25T10:03:13.217Z,31.68
2018-07-25T10:04:13.250Z,31.36
2018-07-25T10:05:13.157Z,33.64
2018-07-25T10:06:13.183Z,31.92
2018-07-25T10:07:13.356Z,32.93
2018-07-25T10:08:13.196Z,33.49
2018-07-25T10:09:13.169Z,34.73
2018-07-25T10:10:13.248Z,32.05
2018-07-25T10:11:13.156Z,37.98
2018-07-25T10:12:13.197Z,31.46
2018-07-25T10:13:13.144Z,30.44
2018-07-25T10:14:13.260Z,31.17
2018-07-25T10:15:13.313Z,31.85
2018-07-25T10:16:13.273Z,31.85
2018-07-25T10:17:13.184Z,31.41
2018-07-25T10:18:13.171Z,31.66
2018-07-25T10:19:13.159Z,31.44
2018-07-25T10:20:13.226Z,31.80
2018-07-25T10:21:13.196Z,31.66
2018-07-25T10:22:13.150Z,30.17
2018-07-25T10:23:13.213Z,31.09
2018-07-25T10:24:13.196Z,33.47
2018-07-25T10:25:13.157Z,36.37
2018-07-25T10:26:13.265Z,35.81
2018-07-25T10:27:13.218Z,33.57
2018-07-25T10:28:13.213Z,34.04
2018-07-25T10:29:13.234Z,31.22
2018-07-25T10:30:13.260Z,34.70
2018-07-25T10:31:13.258Z,30.95
2018-07-25T10:32:13.242Z,32.17
2018-07-25T10:33:13.230Z,32.63
2018-07-25T10:34:13.142Z,32.96
2018-07-25T10:35:13.249Z,35.09
2018-07-25T10:36:13.178Z,34.23
2018-07-25T10:37:13.265Z,34.77
2018-07-25T10:38:13.242Z,36.42
2018-07-25T10:39:13.175Z,36.37
2018-07-25T10:40:13.243Z,37.27
2018-07-25T10:41:13.209Z,37.81
2018-07-25T10:42:13.245Z,39.79
2018-07-25T10:43:13.183Z,38.28
2018-07-25T10:44:13.178Z,39.42
2018-07-25T10:45:13.247Z,39.76
2018-07-25T10:46:13.168Z,38.38
2018-07-25T10:47:13.285Z,38.80
2018-07-25T10:48:13.207Z,39.47
2018-07-25T10:49:13.277Z,40.48
2018-07-25T10:50:13.385Z,40.43
2018-07-25T10:51:13.231Z,43.70
2018-07-25T10:52:13.214Z,41.23
2018-07-25T10:53:13.253Z,40.81
2018-07-25T10:54:13.220Z,40.76
2018-07-25T10:55:13.282Z,41.68
2018-07-25T10:56:13.305Z,41.06
2018-07-25T10:57:13.154Z,41.82
2018-07-25T10:58:13.211Z,42.08
2018-07-25T10:59:13.294Z,41.33
2018-07-25T11:00:13.278Z,41.45
2018-07-25T11:01:13.219Z,41.35
2018-07-25T11:02:13.340Z,41.88
2018-07-25T11:03:13.241Z,41.95
2018-07-25T11:04:13.253Z,42.65
2018-07-25T11:05:13.293Z,43.25
2018-07-25T11:06:13.195Z,42.25
2018-07-25T11:07:13.162Z,39.07
2018-07-25T11:08:13.199Z,41.06
2018-07-25T11:09:13.268Z,39.10
2018-07-25T11:10:13.203Z,38.60
2018-07-25T11:11:13.263Z,38.55
2018-07-25T11:12:13.265Z,39.62
2018-07-25T11:13:13.200Z,39.40
2018-07-25T11:14:13.268Z,37.04
2018-07-25T11:15:13.275Z,37.39
2018-07-25T11:16:13.235Z,38.21
2018-07-25T11:17:13.225Z,37.58
2018-07-25T11:18:13.303Z,37.49
2018-07-25T11:19:13.288Z,35.98
2018-07-25T11:20:13.267Z,36.28
2018-07-25T11:21:13.303Z,38.15
2018-07-25T11:22:13.227Z,38.82
2018-07-25T11:23:13.391Z,37.14
2018-07-25T11:24:13.316Z,37.16
2018-07-25T11:25:13.231Z,33.91
2018-07-25T11:26:13.232Z,35.54
2018-07-25T11:27:13.249Z,35.04
2018-07-25T11:28:13.200Z,33.22
2018-07-25T11:29:13.256Z,34.30
2018-07-25T11:30:13.227Z,36.18
2018-07-25T11:31:13.174Z,35.19
2018-07-25T11:32:13.207Z,35.68
2018-07-25T11:33:13.216Z,33.66
2018-07-25T11:34:13.169Z,35.17
2018-07-25T11:35:13.214Z,35.64
2018-07-25T11:36:13.156Z,34.13
2018-07-25T11:37:13.153Z,34.43
2018-07-25T11:38:13.275Z,34.40
2018-07-25T11:39:13.182Z,35.68
2018-07-25T11:40:13.205Z,34.60
2018-07-25T11:41:13.217Z,32.63
2018-07-25T11:42:13.244Z,32.34
2018-07-25T11:43:13.195Z,31.07
2018-07-25T11:44:13.221Z,33.47
2018-07-25T11:45:13.156Z,32.49
2018-07-25T11:46:13.325Z,31.36
2018-07-25T11:47:13.259Z,33.52
2018-07-25T11:48:13.290Z,31.27
2018-07-25T11:49:13.231Z,32.79
2018-07-25T11:50:13.211Z,32.91
2018-07-25T11:51:13.324Z,32.53
2018-07-25T11:52:13.270Z,35.24
2018-07-25T11:53:13.244Z,35.26
2018-07-25T11:54:13.299Z,33.30
2018-07-25T11:55:13.235Z,33.22
2018-07-25T11:56:13.221Z,33.13
2018-07-25T11:57:13.264Z,32.46
2018-07-25T11:58:13.254Z,32.68
2018-07-25T11:59:13.220Z,34.09
2018-07-25T12:00:13.319Z,33.22
2018-07-25T12:01:13.531Z,32.41
2018-07-25T12:02:13.335Z,35.36
2018-07-25T12:03:13.265Z,33.10
2018-07-25T12:04:13.270Z,35.17
2018-07-25T12:05:13.271Z,31.31
2018-07-25T12:06:13.266Z,30.61
2018-07-25T12:07:13.330Z,31.46
2018-07-25T12:08:13.209Z,31.92
2018-07-25T12:09:13.266Z,36.82
2018-07-25T12:10:13.344Z,32.93
2018-07-25T12:11:13.268Z,32.34
2018-07-25T12:12:13.228Z,32.63
2018-07-25T12:13:13.345Z,30.07
2018-07-25T12:14:13.262Z,30.56
2018-07-25T12:15:13.329Z,29.65
2018-07-25T12:16:13.310Z,28.70
2018-07-25T12:17:13.241Z,29.18
2018-07-25T12:18:13.313Z,28.70
2018-07-25T12:19:13.280Z,31.09
2018-07-25T12:20:13.244Z,31.92
2018-07-25T12:21:13.274Z,30.90
2018-07-25T12:22:13.247Z,32.07
2018-07-25T12:23:13.312Z,32.41
2018-07-25T12:24:13.253Z,31.31
2018-07-25T12:25:13.314Z,34.35
2018-07-25T12:26:13.318Z,35.07
2018-07-25T12:27:13.350Z,30.56
2018-07-25T12:28:13.336Z,28.26
2018-07-25T12:29:13.350Z,30.34
2018-07-25T12:30:13.351Z,30.48
2018-07-25T12:31:13.278Z,33.94
2018-07-25T12:32:13.323Z,29.93
2018-07-25T12:33:13.342Z,28.07
2018-07-25T12:34:13.224Z,29.71
2018-07-25T12:35:13.325Z,30.70
2018-07-25T12:36:13.282Z,29.98
2018-07-25T12:37:13.305Z,30.65
2018-07-25T12:38:13.355Z,30.53
2018-07-25T12:39:13.358Z,32.74
2018-07-25T12:40:13.282Z,29.95
2018-07-25T12:41:13.326Z,31.66
2018-07-25T12:42:13.283Z,27.08
2018-07-25T12:43:13.307Z,29.10
2018-07-25T12:44:13.290Z,28.68
2018-07-25T12:45:13.328Z,27.04
2018-07-25T12:46:13.352Z,27.20
2018-07-25T12:47:13.357Z,27.80
2018-07-25T12:48:13.319Z,29.08
2018-07-25T12:49:13.362Z,28.66
2018-07-25T12:50:13.387Z,28.12
2018-07-25T12:51:13.330Z,27.96
2018-07-25T12:52:13.293Z,28.04